Time;durP1;ratioP1;P1;durP2;ratioP2;P2;SDS_P1;SDS_P2;PMS_P1;PMS_P2;Temp;Humidity;BMP_temperature;BMP_pressure;BME280_temperature;BME280_humidity;BME280_pressure;Samples;Min_cycle;Max_cycle;Signal;HPM_P1;HPM_P2
2022/09/28 00:00:30;;;;;;;6.78;2.00;;;18.40;80.80;;;;;;5113777;28;20040;-71
2022/09/28 00:02:56;;;;;;;7.95;1.73;;;18.40;80.90;;;;;;5114028;28;20023;-71
2022/09/28 00:05:25;;;;;;;8.52;2.05;;;18.40;80.80;;;;;;5114017;28;20081;-71
2022/09/28 00:07:55;;;;;;;9.18;2.53;;;18.40;80.80;;;;;;5113606;28;20023;-72
2022/09/28 00:10:21;;;;;;;14.00;2.08;;;18.40;80.80;;;;;;5114059;28;20102;-72
2022/09/28 00:12:50;;;;;;;8.23;1.67;;;18.40;80.80;;;;;;5113736;28;20395;-72
2022/09/28 00:15:16;;;;;;;8.38;1.90;;;18.40;80.60;;;;;;5095915;28;20468;-72
2022/09/28 00:17:45;;;;;;;10.95;1.95;;;18.40;80.70;;;;;;5112492;28;20042;-72
2022/09/28 00:20:11;;;;;;;9.35;1.70;;;18.40;80.60;;;;;;5112685;28;20028;-71
2022/09/28 00:22:37;;;;;;;8.02;1.70;;;18.40;80.60;;;;;;5095297;28;20030;-72
2022/09/28 00:25:03;;;;;;;12.27;2.13;;;18.30;80.50;;;;;;5112266;28;20399;-71
2022/09/28 00:27:29;;;;;;;12.63;1.88;;;18.40;80.60;;;;;;5113465;28;20443;-72
2022/09/28 00:29:54;;;;;;;4.88;1.50;;;18.40;80.60;;;;;;5113465;28;20104;-72
2022/09/28 00:32:23;;;;;;;8.02;1.80;;;18.40;80.60;;;;;;5113437;28;20141;-72
2022/09/28 00:34:49;;;;;;;8.85;1.80;;;18.40;80.60;;;;;;5112315;28;20530;-72
2022/09/28 00:37:14;;;;;;;8.55;2.20;;;18.30;80.50;;;;;;5113053;28;20133;-71
2022/09/28 00:39:40;;;;;;;7.80;1.77;;;18.40;80.60;;;;;;5087774;28;20020;-71
2022/09/28 00:42:13;;;;;;;7.25;1.48;;;18.40;80.50;;;;;;5071802;28;20024;-71
2022/09/28 00:44:46;;;;;;;7.47;1.90;;;18.40;80.50;;;;;;5071381;28;20032;-71
2022/09/28 00:47:31;;;;;;;8.48;1.85;;;18.40;80.50;;;;;;5087274;28;20014;-71
2022/09/28 00:49:59;;;;;;;9.93;2.00;;;18.40;80.50;;;;;;5111864;28;20043;-72
2022/09/28 00:52:35;;;;;;;6.40;2.10;;;18.30;80.40;;;;;;5111550;28;20069;-71
2022/09/28 00:55:02;;;;;;;6.72;1.38;;;18.40;80.40;;;;;;5112051;28;20055;-72
2022/09/28 00:57:29;;;;;;;8.10;1.73;;;18.30;80.40;;;;;;5095275;28;20047;-72
2022/09/28 00:59:55;;;;;;;8.43;1.92;;;18.30;80.40;;;;;;5111749;28;20034;-72
2022/09/28 01:02:20;;;;;;;7.72;1.63;;;18.30;80.40;;;;;;5111734;28;20051;-72
2022/09/28 01:04:46;;;;;;;6.57;1.33;;;18.30;80.30;;;;;;5095051;28;20019;-72
2022/09/28 01:07:12;;;;;;;7.95;1.98;;;18.30;80.30;;;;;;5111658;28;20027;-72
2022/09/28 01:09:38;;;;;;;9.80;2.15;;;18.30;80.30;;;;;;5094740;28;20551;-72
2022/09/28 01:12:04;;;;;;;6.63;1.52;;;18.30;80.30;;;;;;5111802;28;20084;-72
2022/09/28 01:14:29;;;;;;;7.85;1.58;;;18.30;80.30;;;;;;5111491;28;20032;-72
2022/09/28 01:17:15;;;;;;;7.60;2.03;;;18.30;80.30;;;;;;5094824;28;20035;-72
2022/09/28 01:19:41;;;;;;;7.22;1.85;;;18.40;80.30;;;;;;5111220;28;20024;-72
2022/09/28 01:22:44;;;;;;;7.55;1.20;;;18.30;80.30;;;;;;5112879;28;20097;-72
2022/09/28 01:25:22;;;;;;;5.55;1.67;;;18.30;80.10;;;;;;5112789;28;20376;-72
2022/09/28 01:27:53;;;;;;;8.05;2.03;;;18.40;80.30;;;;;;5111549;28;20027;-72
2022/09/28 01:30:19;;;;;;;5.40;1.75;;;18.30;80.10;;;;;;5111547;28;20027;-71
2022/09/28 01:32:51;;;;;;;6.13;1.55;;;18.30;80.10;;;;;;5111670;28;20031;-72
2022/09/28 01:35:21;;;;;;;5.90;1.90;;;18.30;80.20;;;;;;5112379;28;20106;-72
2022/09/28 01:38:08;;;;;;;4.03;1.50;;;18.30;80.20;;;;;;5112463;28;20091;-72
2022/09/28 01:40:34;;;;;;;6.25;1.50;;;18.30;80.20;;;;;;5041144;28;20035;-72
2022/09/28 01:43:23;;;;;;;3.70;1.48;;;18.30;80.10;;;;;;5054363;28;20025;-72
2022/09/28 01:46:06;;;;;;;3.90;1.15;;;18.30;80.10;;;;;;5065559;28;20055;-72
2022/09/28 01:48:36;;;;;;;4.55;1.20;;;18.30;80.10;;;;;;5091931;28;20020;-72
2022/09/28 01:51:05;;;;;;;5.50;1.48;;;18.30;80.10;;;;;;5094494;28;20040;-72
2022/09/28 01:53:42;;;;;;;5.18;1.13;;;18.30;80.20;;;;;;5094778;28;20027;-72
2022/09/28 01:56:39;;;;;;;7.00;1.27;;;18.30;80.10;;;;;;5111573;28;20054;-72
2022/09/28 01:59:23;;;;;;;4.35;1.08;;;18.30;80.20;;;;;;5108479;28;20043;-72
2022/09/28 02:01:52;;;;;;;2.58;0.90;;;18.30;80.10;;;;;;5112439;28;20493;-72
2022/09/28 02:04:22;;;;;;;6.15;1.85;;;18.30;80.20;;;;;;5094034;28;20552;-72
2022/09/28 02:07:12;;;;;;;1.85;1.10;;;18.30;80.20;;;;;;5094813;28;20027;-72
2022/09/28 02:09:50;;;;;;;4.25;1.30;;;18.30;80.20;;;;;;5100927;28;20111;-71
2022/09/28 02:12:28;;;;;;;8.40;1.50;;;18.30;80.20;;;;;;5115072;28;20076;-71
2022/09/28 02:14:54;;;;;;;5.70;1.58;;;18.30;80.30;;;;;;5099189;28;20024;-71
2022/09/28 02:17:20;;;;;;;4.10;1.10;;;18.30;81.40;;;;;;5098172;28;20055;-71
2022/09/28 02:19:46;;;;;;;2.67;1.05;;;18.30;80.40;;;;;;5115880;28;20366;-71
2022/09/28 02:22:36;;;;;;;4.90;1.40;;;18.30;80.20;;;;;;5114907;28;20467;-71
2022/09/28 02:25:17;;;;;;;3.42;1.23;;;18.40;80.20;;;;;;5098243;28;20023;-71
2022/09/28 02:27:51;;;;;;;3.22;1.10;;;18.40;80.30;;;;;;5114787;28;20011;-71
2022/09/28 02:30:17;;;;;;;4.55;1.25;;;18.30;80.20;;;;;;5115950;28;20027;-71
2022/09/28 02:32:45;;;;;;;3.88;1.38;;;18.40;80.30;;;;;;5114444;28;20016;-71
2022/09/28 02:35:12;;;;;;;5.18;1.40;;;18.30;80.10;;;;;;5114525;28;20028;-71
2022/09/28 02:37:38;;;;;;;5.35;1.55;;;18.40;80.20;;;;;;5115651;28;20019;-71
2022/09/28 02:40:28;;;;;;;4.95;1.20;;;18.40;80.20;;;;;;5083579;28;20079;-71
2022/09/28 02:43:11;;;;;;;3.47;0.90;;;18.40;80.10;;;;;;5068482;28;20043;-71
2022/09/28 02:45:49;;;;;;;4.15;1.20;;;18.40;80.00;;;;;;5073806;28;20028;-71
2022/09/28 02:48:39;;;;;;;4.82;1.55;;;18.40;80.10;;;;;;5107025;28;20038;-71
2022/09/28 02:51:31;;;;;;;3.28;1.02;;;18.40;80.00;;;;;;5114073;28;20040;-71
2022/09/28 02:54:34;;;;;;;3.22;0.85;;;18.40;80.10;;;;;;5114425;28;20077;-71
2022/09/28 02:57:18;;;;;;;5.20;1.27;;;18.40;80.00;;;;;;5115511;28;20023;-71
2022/09/28 03:00:03;;;;;;;3.55;1.10;;;18.40;80.00;;;;;;5115229;28;20027;-71
2022/09/28 03:02:45;;;;;;;2.65;0.85;;;18.40;80.00;;;;;;5114930;28;20024;-71
2022/09/28 03:05:15;;;;;;;3.08;0.70;;;18.40;80.00;;;;;;5098538;28;20085;-71
2022/09/28 03:08:00;;;;;;;3.78;1.08;;;18.40;80.00;;;;;;5113913;28;20375;-72
2022/09/28 03:10:46;;;;;;;4.60;1.02;;;18.40;79.90;;;;;;5113990;28;20029;-72
2022/09/28 03:13:12;;;;;;;2.72;1.23;;;18.40;79.90;;;;;;5113963;28;20493;-72
2022/09/28 03:15:39;;;;;;;2.83;0.80;;;18.40;79.90;;;;;;5096744;28;20063;-72
2022/09/28 03:18:04;;;;;;;3.42;1.33;;;18.40;80.00;;;;;;5114937;28;20019;-72
2022/09/28 03:20:31;;;;;;;6.85;1.10;;;18.40;79.90;;;;;;5112431;28;20513;-72
2022/09/28 03:22:57;;;;;;;4.57;1.00;;;18.40;79.90;;;;;;5113512;28;20018;-72
2022/09/28 03:25:22;;;;;;;3.35;1.10;;;18.40;79.90;;;;;;5115145;28;20023;-72
2022/09/28 03:27:48;;;;;;;6.57;1.70;;;18.40;79.90;;;;;;5114585;28;20020;-72
2022/09/28 03:30:13;;;;;;;3.75;1.17;;;18.40;79.90;;;;;;5113264;28;20031;-72
2022/09/28 03:32:39;;;;;;;2.30;0.95;;;18.30;79.80;;;;;;5114624;28;20051;-72
2022/09/28 03:35:06;;;;;;;7.82;1.05;;;18.30;79.80;;;;;;5114551;28;20446;-72
2022/09/28 03:37:32;;;;;;;3.33;0.93;;;18.40;79.80;;;;;;5113313;28;20479;-72
2022/09/28 03:39:57;;;;;;;5.25;1.27;;;18.40;79.80;;;;;;5084119;28;20060;-72
2022/09/28 03:42:23;;;;;;;2.28;0.90;;;18.30;79.70;;;;;;5073791;28;20045;-72
2022/09/28 03:44:48;;;;;;;2.88;1.05;;;18.30;79.70;;;;;;5073418;28;20447;-72
2022/09/28 03:47:16;;;;;;;4.10;1.00;;;18.30;79.70;;;;;;5090010;28;20012;-72
2022/09/28 03:49:42;;;;;;;3.45;1.00;;;18.40;79.80;;;;;;5113024;28;20023;-72
2022/09/28 03:52:08;;;;;;;3.72;1.00;;;18.30;79.70;;;;;;5112996;28;20050;-72
2022/09/28 03:54:33;;;;;;;6.03;0.95;;;18.30;79.70;;;;;;5113229;28;20103;-72
2022/09/28 03:56:59;;;;;;;5.03;1.17;;;18.30;79.70;;;;;;5112911;28;20028;-72
2022/09/28 03:59:25;;;;;;;2.97;1.00;;;18.40;79.80;;;;;;5114071;28;20028;-72
2022/09/28 04:01:50;;;;;;;2.63;0.90;;;18.30;79.70;;;;;;5113834;28;20027;-72
2022/09/28 04:04:16;;;;;;;4.40;1.00;;;18.30;79.60;;;;;;5112865;28;20076;-72
2022/09/28 04:06:42;;;;;;;2.58;0.90;;;18.30;79.70;;;;;;5112611;28;20047;-72
2022/09/28 04:09:08;;;;;;;1.85;1.02;;;18.40;79.70;;;;;;5095825;28;20024;-72
2022/09/28 04:11:33;;;;;;;2.85;0.82;;;18.30;79.60;;;;;;5113852;28;20016;-72
2022/09/28 04:13:59;;;;;;;4.45;1.10;;;18.30;79.60;;;;;;5112446;28;20023;-72
2022/09/28 04:16:25;;;;;;;3.42;0.90;;;18.30;79.60;;;;;;5112654;28;20436;-72
2022/09/28 04:18:51;;;;;;;3.03;1.05;;;18.30;79.60;;;;;;5095911;28;20371;-72
2022/09/28 04:21:18;;;;;;;2.33;0.75;;;18.30;79.60;;;;;;5112604;28;20066;-72
2022/09/28 04:23:43;;;;;;;2.28;0.85;;;18.30;79.60;;;;;;5113415;28;20508;-72
2022/09/28 04:26:16;;;;;;;4.13;1.30;;;18.30;79.60;;;;;;5113736;28;20016;-72
2022/09/28 04:31:29;;;;;;;1.92;0.80;;;18.30;79.60;;;;;;5113156;28;20034;-72
2022/09/28 04:33:58;;;;;;;4.40;1.08;;;18.30;79.50;;;;;;5095256;28;20027;-72
2022/09/28 04:36:26;;;;;;;5.93;0.93;;;18.30;79.60;;;;;;5113451;28;20043;-72
2022/09/28 04:38:52;;;;;;;2.78;1.00;;;18.30;79.70;;;;;;5101422;28;20032;-72
2022/09/28 04:41:17;;;;;;;2.85;0.82;;;18.30;79.60;;;;;;5072782;28;20036;-72
2022/09/28 04:43:45;;;;;;;1.92;0.70;;;18.30;79.70;;;;;;5072476;28;20060;-72
2022/09/28 04:46:11;;;;;;;1.90;0.80;;;18.30;79.60;;;;;;5072628;28;20035;-72
2022/09/28 04:48:37;;;;;;;3.75;0.75;;;18.30;79.60;;;;;;5112237;28;20102;-72
2022/09/28 04:51:02;;;;;;;2.35;0.80;;;18.30;79.50;;;;;;5111762;28;20525;-72
2022/09/28 04:53:28;;;;;;;1.23;0.55;;;18.30;79.60;;;;;;5112113;28;20028;-72
2022/09/28 04:56:01;;;;;;;3.17;0.90;;;18.30;79.60;;;;;;5112995;28;20094;-72
2022/09/28 04:58:27;;;;;;;3.67;1.15;;;18.30;79.50;;;;;;5113197;28;20027;-72
2022/09/28 05:00:55;;;;;;;2.70;0.80;;;18.30;79.50;;;;;;5107354;28;20021;-72
2022/09/28 05:03:21;;;;;;;4.15;1.02;;;18.30;79.60;;;;;;5076391;28;20020;-72
2022/09/28 05:05:48;;;;;;;3.00;1.00;;;18.30;79.60;;;;;;5074430;28;20024;-72
2022/09/28 05:08:13;;;;;;;3.50;0.73;;;18.30;79.60;;;;;;5074026;28;20024;-72
2022/09/28 05:10:39;;;;;;;1.10;0.80;;;18.30;79.70;;;;;;5074247;28;20392;-72
2022/09/28 05:13:08;;;;;;;2.85;0.98;;;18.30;79.70;;;;;;5071570;28;20024;-72
2022/09/28 05:15:35;;;;;;;2.58;0.80;;;18.30;79.70;;;;;;5071776;28;20019;-72
2022/09/28 05:18:01;;;;;;;2.85;0.80;;;18.30;79.70;;;;;;5071606;28;20020;-72
2022/09/28 05:20:26;;;;;;;1.80;0.85;;;18.30;79.80;;;;;;5075506;28;20020;-72
2022/09/28 05:22:52;;;;;;;2.55;0.77;;;18.30;79.70;;;;;;5074253;28;20392;-71
2022/09/28 05:25:18;;;;;;;2.15;0.70;;;18.30;79.70;;;;;;5074493;28;20077;-71
2022/09/28 05:27:43;;;;;;;2.47;1.08;;;18.30;79.60;;;;;;5074376;28;20020;-71
2022/09/28 05:30:10;;;;;;;2.10;0.80;;;18.30;79.50;;;;;;5079217;28;20021;-71
2022/09/28 05:32:43;;;;;;;1.77;0.80;;;18.30;79.30;;;;;;5085220;28;20491;-71
2022/09/28 05:35:09;;;;;;;1.27;0.50;;;18.30;79.20;;;;;;5074561;28;20020;-71
2022/09/28 05:37:36;;;;;;;2.80;0.77;;;18.30;79.10;;;;;;5092250;28;20020;-72
2022/09/28 05:40:02;;;;;;;1.52;0.70;;;18.30;79.00;;;;;;5077057;28;20025;-72
2022/09/28 05:42:29;;;;;;;2.40;0.57;;;18.30;78.90;;;;;;5071765;28;20066;-72
2022/09/28 05:44:54;;;;;;;1.00;0.57;;;18.20;78.70;;;;;;5073972;28;20033;-72
2022/09/28 05:47:20;;;;;;;2.15;0.98;;;18.30;78.80;;;;;;5094153;28;20094;-70
2022/09/28 05:49:45;;;;;;;3.50;1.00;;;18.30;78.70;;;;;;5116624;28;20098;-70
2022/09/28 05:52:11;;;;;;;2.05;0.77;;;18.30;78.60;;;;;;5116569;28;20044;-70
2022/09/28 05:54:37;;;;;;;1.58;0.60;;;18.20;78.50;;;;;;5116630;28;20023;-70
2022/09/28 05:57:04;;;;;;;2.63;0.65;;;18.20;78.40;;;;;;5116062;28;20030;-71
2022/09/28 05:59:29;;;;;;;1.63;0.70;;;18.20;78.30;;;;;;5116683;28;20069;-71
2022/09/28 06:01:55;;;;;;;5.15;1.05;;;18.20;78.40;;;;;;5116324;28;20031;-70
2022/09/28 06:04:21;;;;;;;1.92;0.75;;;18.20;78.30;;;;;;5115218;28;20034;-71
2022/09/28 06:06:46;;;;;;;1.70;0.50;;;18.20;78.20;;;;;;5116195;28;20030;-71
2022/09/28 06:09:12;;;;;;;1.70;0.65;;;18.20;78.20;;;;;;5115049;28;20539;-71
2022/09/28 06:11:38;;;;;;;2.70;0.70;;;18.20;78.10;;;;;;5115967;28;20026;-71
2022/09/28 06:14:04;;;;;;;1.15;0.60;;;18.20;78.10;;;;;;5115005;28;20506;-73
2022/09/28 06:16:29;;;;;;;3.08;0.90;;;18.20;78.00;;;;;;5116127;28;20035;-71
2022/09/28 06:18:55;;;;;;;2.05;0.60;;;18.20;78.00;;;;;;5116131;28;20020;-71
2022/09/28 06:21:21;;;;;;;2.17;0.60;;;18.20;78.00;;;;;;5116132;28;20032;-71
2022/09/28 06:23:46;;;;;;;2.53;0.88;;;18.10;77.90;;;;;;5116130;28;20028;-71
2022/09/28 06:26:12;;;;;;;1.02;0.55;;;18.20;77.90;;;;;;5116054;28;20020;-71
2022/09/28 06:28:38;;;;;;;1.23;0.57;;;18.10;77.80;;;;;;5114681;28;20026;-71
2022/09/28 06:31:03;;;;;;;1.02;0.40;;;18.10;77.80;;;;;;5115653;28;20024;-71
2022/09/28 06:33:29;;;;;;;2.28;0.70;;;18.10;77.80;;;;;;5115872;28;20027;-71
2022/09/28 06:35:54;;;;;;;2.17;0.57;;;18.10;77.80;;;;;;5097494;28;20229;-72
2022/09/28 06:38:20;;;;;;;35.28;5.90;;;18.10;77.80;;;;;;5114007;28;20080;-70
2022/09/28 06:40:46;;;;;;;22.67;4.20;;;18.10;78.00;;;;;;5074800;28;20047;-70
2022/09/28 06:43:13;;;;;;;27.08;4.45;;;18.10;78.20;;;;;;5074313;28;20020;-70
2022/09/28 06:45:39;;;;;;;21.15;3.38;;;18.10;78.30;;;;;;5074021;28;20503;-70
2022/09/28 06:48:05;;;;;;;28.15;4.10;;;18.10;78.50;;;;;;5104118;28;20020;-70
2022/09/28 06:50:33;;;;;;;21.48;4.47;;;18.10;78.50;;;;;;5113297;28;20051;-70
2022/09/28 06:52:59;;;;;;;26.10;4.82;;;18.10;78.60;;;;;;5087160;28;20024;-70
2022/09/28 06:55:25;;;;;;;30.45;4.07;;;18.10;78.70;;;;;;5109726;28;20024;-70
2022/09/28 06:57:58;;;;;;;23.40;3.70;;;18.10;78.80;;;;;;5096333;28;20030;-70
2022/09/28 07:00:25;;;;;;;19.67;3.55;;;18.10;78.90;;;;;;5079985;28;20027;-70
2022/09/28 07:02:50;;;;;;;18.88;3.20;;;18.10;78.90;;;;;;5115311;28;20020;-70
2022/09/28 07:05:18;;;;;;;26.73;4.30;;;18.10;78.90;;;;;;5115163;28;20069;-70
2022/09/28 07:07:43;;;;;;;21.90;3.88;;;18.10;78.80;;;;;;5114766;28;20483;-70
2022/09/28 07:10:10;;;;;;;26.25;4.30;;;18.10;78.90;;;;;;5101565;28;20031;-70
2022/09/28 07:12:37;;;;;;;24.48;3.67;;;18.10;78.80;;;;;;5094685;28;20124;-70
2022/09/28 07:15:03;;;;;;;26.95;3.92;;;18.10;78.80;;;;;;5094673;28;20419;-70
2022/09/28 07:17:30;;;;;;;21.08;3.80;;;18.10;78.90;;;;;;5094729;28;20027;-70
2022/09/28 07:19:57;;;;;;;23.48;3.63;;;18.10;78.80;;;;;;5094417;28;20024;-70
2022/09/28 07:22:23;;;;;;;23.80;3.85;;;18.10;78.80;;;;;;5094302;28;20064;-70
2022/09/28 07:24:48;;;;;;;23.75;3.65;;;18.10;78.80;;;;;;5094508;28;20076;-70
2022/09/28 07:27:15;;;;;;;18.80;3.92;;;18.10;78.80;;;;;;5106632;28;20027;-69
2022/09/28 07:29:40;;;;;;;15.95;3.65;;;18.10;78.80;;;;;;5114794;28;20024;-69
2022/09/28 07:32:07;;;;;;;18.55;3.85;;;18.10;78.80;;;;;;5113422;28;20064;-69
2022/09/28 07:34:38;;;;;;;14.10;3.58;;;18.10;78.80;;;;;;5114663;28;20114;-69
2022/09/28 07:37:07;;;;;;;21.25;3.97;;;18.10;78.80;;;;;;5114235;28;20027;-70
2022/09/28 07:41:10;;;;;;;17.92;3.50;;;18.10;78.80;;;;;;5091422;28;20087;-70
2022/09/28 07:42:18;;;;;;;18.30;3.00;;;18.00;78.80;;;;;;5073768;28;20020;-70
2022/09/28 07:44:44;;;;;;;20.80;3.45;;;18.00;78.70;;;;;;5073537;28;20032;-70
2022/09/28 07:47:10;;;;;;;14.32;3.70;;;18.00;78.70;;;;;;5073542;28;20488;-70
2022/09/28 07:49:35;;;;;;;14.68;3.63;;;18.00;78.70;;;;;;5073802;28;20028;-70
2022/09/28 07:52:01;;;;;;;13.77;2.67;;;18.10;78.70;;;;;;5073249;28;20508;-70
2022/09/28 07:54:28;;;;;;;16.75;3.53;;;18.00;78.70;;;;;;5073594;28;20083;-70
2022/09/28 07:56:54;;;;;;;12.10;3.08;;;18.00;78.60;;;;;;5073585;28;20020;-70
2022/09/28 07:59:20;;;;;;;11.27;3.22;;;18.00;78.60;;;;;;5073398;28;20036;-70
2022/09/28 08:01:48;;;;;;;13.23;3.33;;;18.00;78.60;;;;;;5107232;28;20020;-70
2022/09/28 08:04:14;;;;;;;14.13;3.90;;;18.00;78.60;;;;;;5095779;28;20466;-70
2022/09/28 08:06:40;;;;;;;13.68;3.22;;;18.00;78.60;;;;;;5113486;28;20091;-70
2022/09/28 08:09:05;;;;;;;10.90;2.92;;;18.00;78.50;;;;;;5113792;28;20016;-70
2022/09/28 08:11:31;;;;;;;12.45;2.85;;;18.00;78.50;;;;;;5112843;28;20023;-70
2022/09/28 08:13:56;;;;;;;13.57;3.10;;;18.00;78.50;;;;;;5112634;28;20027;-70
2022/09/28 08:16:22;;;;;;;13.38;3.55;;;18.00;78.60;;;;;;5112745;28;20429;-70
2022/09/28 08:18:48;;;;;;;13.20;2.92;;;18.00;78.50;;;;;;5113914;28;20024;-70
2022/09/28 08:23:58;;;;;;;13.98;3.28;;;18.00;78.50;;;;;;5113636;28;20030;-70
2022/09/28 08:26:23;;;;;;;13.27;3.20;;;18.00;79.50;;;;;;5113610;28;20098;-70
2022/09/28 08:28:50;;;;;;;12.25;3.08;;;18.00;78.50;;;;;;5113686;28;20023;-70
2022/09/28 08:31:15;;;;;;;9.93;2.70;;;18.00;78.40;;;;;;5113464;28;20027;-69
2022/09/28 08:33:41;;;;;;;10.18;2.45;;;18.00;78.40;;;;;;5113410;28;20028;-69
2022/09/28 08:36:08;;;;;;;9.02;2.72;;;18.00;78.40;;;;;;5113189;28;20028;-69
2022/09/28 08:38:33;;;;;;;12.82;2.92;;;18.00;79.40;;;;;;5089874;28;20072;-69
2022/09/28 08:41:08;;;;;;;13.80;2.92;;;18.00;78.40;;;;;;5072813;28;20024;-69
2022/09/28 08:43:46;;;;;;;11.30;3.15;;;17.90;79.30;;;;;;5072579;28;20067;-69
2022/09/28 08:46:12;;;;;;;10.30;2.75;;;17.90;78.30;;;;;;5072746;28;20020;-69
2022/09/28 08:49:18;;;;;;;9.63;2.40;;;17.90;78.40;;;;;;5071373;28;20023;-69
2022/09/28 08:51:58;;;;;;;9.50;2.55;;;18.00;78.30;;;;;;5065108;28;20113;-69
2022/09/28 08:54:45;;;;;;;9.00;2.70;;;18.00;78.30;;;;;;5072571;28;20035;-69
2022/09/28 08:57:16;;;;;;;9.23;2.58;;;17.90;78.20;;;;;;5072568;28;20021;-69
2022/09/28 08:59:52;;;;;;;10.65;2.92;;;17.90;78.30;;;;;;5071332;28;20032;-69
2022/09/28 09:02:32;;;;;;;8.50;2.53;;;17.90;78.20;;;;;;5055676;28;20020;-69
2022/09/28 09:04:58;;;;;;;10.23;2.30;;;17.90;78.30;;;;;;5071138;28;20033;-69
2022/09/28 09:07:41;;;;;;;8.80;2.72;;;17.90;78.20;;;;;;5072438;28;20056;-69
2022/09/28 09:10:10;;;;;;;7.68;2.38;;;17.90;78.10;;;;;;5071318;28;20024;-69
2022/09/28 09:12:43;;;;;;;7.55;2.53;;;17.90;78.20;;;;;;5072356;28;20032;-69
2022/09/28 09:15:37;;;;;;;10.30;2.70;;;17.90;78.20;;;;;;5071065;28;20048;-69
2022/09/28 09:18:16;;;;;;;13.75;2.60;;;17.90;78.10;;;;;;5056898;28;20099;-69
2022/09/28 09:20:48;;;;;;;10.85;3.13;;;17.90;78.10;;;;;;5071321;28;20093;-69
2022/09/28 09:23:35;;;;;;;11.48;2.58;;;17.90;78.20;;;;;;5071960;28;20025;-69
2022/09/28 09:26:16;;;;;;;9.00;2.45;;;17.90;78.20;;;;;;5055945;28;20524;-69
2022/09/28 09:28:49;;;;;;;6.38;2.05;;;17.90;78.10;;;;;;5071174;28;20025;-69
2022/09/28 09:31:37;;;;;;;9.32;2.47;;;17.90;78.20;;;;;;5071008;28;20024;-69
2022/09/28 09:34:21;;;;;;;9.05;2.08;;;17.90;78.20;;;;;;5071936;28;20024;-69
2022/09/28 09:36:52;;;;;;;7.72;2.53;;;17.90;78.10;;;;;;5072273;28;20400;-69
2022/09/28 09:39:38;;;;;;;7.30;2.58;;;17.90;78.20;;;;;;5071872;28;20025;-69
2022/09/28 09:42:08;;;;;;;12.75;2.97;;;17.90;78.20;;;;;;5070836;28;20555;-69
2022/09/28 09:45:03;;;;;;;11.35;2.28;;;17.90;78.20;;;;;;5070802;28;20020;-69
2022/09/28 09:47:32;;;;;;;7.88;2.42;;;17.80;78.10;;;;;;5070618;28;20021;-69
2022/09/28 09:50:28;;;;;;;12.23;2.92;;;17.90;78.20;;;;;;5070622;28;20020;-69
2022/09/28 09:53:26;;;;;;;8.00;2.28;;;17.90;78.20;;;;;;5072237;28;20040;-69
2022/09/28 09:56:03;;;;;;;8.90;2.05;;;17.90;78.10;;;;;;5070088;28;20029;-69
2022/09/28 09:58:39;;;;;;;6.63;2.35;;;17.90;78.10;;;;;;5070727;28;20070;-69
2022/09/28 10:01:12;;;;;;;4.93;2.00;;;17.80;78.00;;;;;;5092657;28;20023;-69
2022/09/28 10:03:40;;;;;;;8.48;2.60;;;17.80;78.10;;;;;;5111195;28;20026;-69
2022/09/28 10:06:14;;;;;;;8.60;2.20;;;17.80;78.10;;;;;;5094727;28;20039;-69
2022/09/28 10:08:44;;;;;;;9.65;2.42;;;17.80;78.10;;;;;;5110906;28;20016;-69
2022/09/28 10:11:18;;;;;;;10.93;2.65;;;17.80;78.00;;;;;;5094497;28;20020;-69
2022/09/28 10:13:47;;;;;;;5.72;2.22;;;17.80;78.00;;;;;;5111156;28;20020;-69
2022/09/28 10:16:13;;;;;;;8.05;1.88;;;17.80;78.00;;;;;;5111026;28;20035;-69
2022/09/28 10:18:39;;;;;;;8.75;2.55;;;17.80;78.00;;;;;;5111085;28;20020;-69
2022/09/28 10:21:05;;;;;;;5.90;2.08;;;17.80;78.00;;;;;;5112155;28;20103;-69
2022/09/28 10:23:32;;;;;;;6.70;2.55;;;17.80;78.00;;;;;;5112067;28;20024;-69
2022/09/28 10:26:27;;;;;;;8.68;2.22;;;17.80;78.00;;;;;;5111086;28;20035;-69
2022/09/28 10:28:55;;;;;;;5.57;2.13;;;17.80;78.00;;;;;;5108429;28;20126;-69
2022/09/28 10:31:40;;;;;;;5.35;1.67;;;17.80;78.00;;;;;;5115350;28;20503;-69
2022/09/28 10:34:07;;;;;;;8.07;2.47;;;17.80;78.00;;;;;;5116026;28;20024;-69
2022/09/28 10:36:37;;;;;;;7.03;2.08;;;17.80;78.10;;;;;;5097647;28;20034;-69
2022/09/28 10:39:18;;;;;;;8.63;1.83;;;17.80;78.00;;;;;;5101103;28;20020;-69
2022/09/28 10:41:50;;;;;;;7.47;2.13;;;17.80;78.00;;;;;;5073874;28;20032;-69
2022/09/28 10:44:17;;;;;;;5.27;2.07;;;17.80;78.00;;;;;;5074704;28;20020;-69
2022/09/28 10:46:43;;;;;;;7.50;2.65;;;17.80;78.00;;;;;;5073615;28;20020;-69
2022/09/28 10:49:15;;;;;;;7.65;2.17;;;17.80;78.00;;;;;;5056961;28;20032;-69
2022/09/28 10:51:48;;;;;;;;;;;17.80;77.90;;;;;;5074121;28;20040;-69
2022/09/28 10:54:17;;;;;;;8.20;1.90;;;17.80;77.90;;;;;;5074702;28;19904;-69
2022/09/28 10:56:43;;;;;;;5.82;2.40;;;17.80;78.00;;;;;;5073609;28;20502;-69
2022/09/28 10:59:38;;;;;;;5.25;1.92;;;17.80;78.00;;;;;;5073434;28;20100;-69
2022/09/28 11:02:16;;;;;;;5.60;1.80;;;17.80;77.90;;;;;;5112070;28;20543;-69
2022/09/28 11:04:42;;;;;;;7.93;2.40;;;17.80;78.00;;;;;;5098131;28;20027;-69
2022/09/28 11:07:18;;;;;;;8.98;2.50;;;17.80;78.00;;;;;;5113936;28;20024;-69
2022/09/28 11:09:46;;;;;;;5.30;2.15;;;17.80;78.00;;;;;;5096974;28;20361;-69
2022/09/28 11:12:20;;;;;;;6.10;2.20;;;17.80;78.00;;;;;;5115111;28;20033;-69
2022/09/28 11:14:51;;;;;;;8.75;2.58;;;17.80;77.90;;;;;;5097538;28;20020;-69
2022/09/28 11:17:28;;;;;;;6.00;1.83;;;17.80;78.00;;;;;;5113718;28;20104;-69
2022/09/28 11:19:55;;;;;;;4.78;1.90;;;17.80;77.90;;;;;;5113923;28;20487;-69
2022/09/28 11:22:21;;;;;;;6.38;1.90;;;17.80;77.90;;;;;;5113549;28;20106;-69
2022/09/28 11:24:48;;;;;;;4.90;1.60;;;17.80;77.90;;;;;;5113628;28;20035;-69
2022/09/28 11:27:21;;;;;;;6.63;2.20;;;17.80;77.90;;;;;;5114809;28;20052;-69
2022/09/28 11:30:09;;;;;;;5.85;2.05;;;17.80;77.90;;;;;;5113297;28;20103;-69
2022/09/28 11:32:42;;;;;;;7.13;1.85;;;17.80;77.90;;;;;;5096735;28;20027;-69
2022/09/28 11:35:18;;;;;;;3.95;1.65;;;17.70;77.80;;;;;;5096671;28;20103;-69
2022/09/28 11:37:44;;;;;;;5.25;1.70;;;17.80;77.90;;;;;;5097118;28;20536;-69
2022/09/28 11:40:24;;;;;;;7.28;1.85;;;17.80;77.90;;;;;;5082208;28;20133;-69
2022/09/28 11:43:07;;;;;;;3.72;1.60;;;17.80;77.90;;;;;;5073219;28;20025;-69
2022/09/28 11:45:38;;;;;;;5.03;1.88;;;17.80;77.90;;;;;;5072964;28;20032;-69
2022/09/28 11:48:06;;;;;;;11.43;2.13;;;17.70;77.80;;;;;;5073911;28;20032;-69
2022/09/28 11:51:02;;;;;;;6.10;1.67;;;17.70;77.70;;;;;;5072289;28;20024;-69
2022/09/28 11:53:53;;;;;;;3.67;1.60;;;17.70;77.70;;;;;;5055676;28;20411;-69
2022/09/28 11:56:30;;;;;;;5.43;1.77;;;17.70;77.70;;;;;;5072434;28;20044;-69
2022/09/28 11:59:19;;;;;;;4.57;1.63;;;17.70;77.80;;;;;;5073401;28;20485;-69
2022/09/28 12:01:50;;;;;;;5.00;1.63;;;17.70;77.80;;;;;;5101089;28;20035;-69
2022/09/28 12:04:40;;;;;;;4.53;1.60;;;17.70;77.80;;;;;;5096126;28;20051;-69
2022/09/28 12:07:11;;;;;;;6.50;2.08;;;17.70;77.70;;;;;;5103889;28;20028;-69
2022/09/28 12:09:39;;;;;;;4.88;2.00;;;17.70;77.80;;;;;;5112658;28;20024;-69
2022/09/28 12:12:10;;;;;;;5.00;1.55;;;17.70;77.70;;;;;;5113859;28;20055;-69
2022/09/28 12:14:38;;;;;;;4.87;1.57;;;17.70;77.80;;;;;;5096396;28;20540;-69
2022/09/28 12:17:25;;;;;;;5.65;2.08;;;17.70;77.70;;;;;;5113829;28;20487;-69
2022/09/28 12:20:16;;;;;;;5.75;1.77;;;17.70;77.70;;;;;;5112419;28;20058;-69
2022/09/28 12:22:59;;;;;;;8.10;2.30;;;17.70;77.70;;;;;;5113746;28;20032;-69
2022/09/28 12:25:26;;;;;;;5.20;1.40;;;17.70;77.70;;;;;;5113609;28;20034;-69
2022/09/28 12:28:03;;;;;;;5.07;1.70;;;17.70;77.70;;;;;;5095530;28;20032;-69
2022/09/28 12:30:32;;;;;;;7.07;1.90;;;17.70;77.70;;;;;;5096886;28;20026;-69
2022/09/28 12:33:04;;;;;;;6.35;2.03;;;17.70;77.70;;;;;;5095721;28;20024;-69
2022/09/28 12:35:58;;;;;;;6.50;1.60;;;17.70;77.70;;;;;;5112329;28;20016;-69
2022/09/28 12:38:38;;;;;;;3.20;1.52;;;17.70;77.70;;;;;;5109733;28;20020;-69
2022/09/28 12:41:38;;;;;;;5.65;1.60;;;17.70;77.70;;;;;;5072543;28;20049;-69
2022/09/28 12:44:23;;;;;;;3.80;1.75;;;17.70;77.70;;;;;;5071810;28;20055;-69
2022/09/28 12:47:05;;;;;;;4.65;1.58;;;17.70;77.60;;;;;;5072911;28;20021;-69
2022/09/28 12:49:51;;;;;;;5.70;1.70;;;17.70;77.70;;;;;;5072592;28;20477;-69
2022/09/28 12:52:37;;;;;;;5.43;1.77;;;17.70;77.70;;;;;;5072197;28;20044;-69
2022/09/28 12:55:44;;;;;;;4.43;1.70;;;17.70;77.70;;;;;;5072389;28;20040;-69
2022/09/28 12:58:25;;;;;;;6.55;1.52;;;17.70;77.70;;;;;;5067579;28;20036;-69
2022/09/28 13:00:57;;;;;;;5.72;1.17;;;17.70;77.70;;;;;;5089254;28;20027;-69
2022/09/28 13:03:44;;;;;;;5.30;1.48;;;17.70;77.70;;;;;;5111944;28;20032;-69
2022/09/28 13:06:35;;;;;;;4.45;1.48;;;17.70;77.60;;;;;;5112044;28;20411;-69
2022/09/28 13:09:20;;;;;;;3.97;1.52;;;17.70;77.70;;;;;;5111837;28;20085;-69
2022/09/28 13:12:13;;;;;;;4.22;1.50;;;17.70;77.70;;;;;;5112601;28;20082;-69
2022/09/28 13:14:55;;;;;;;4.40;1.60;;;17.70;77.70;;;;;;5111687;28;20049;-69